Strona główna
METAR-TAF:

METAR-TAF

Lotnisko :

Port lotniczy Kuwejt

Kuwejt, Kuwejt

Szerokość geograficzna: 29-13N, Długość geograficzna: 047-59E, wysokość: 55 m

Aktualna obserwacja pogody

Raport powstał 11 minut temu, godzina 07:00 UTC
Wiatr 21 kt od północno-północny zachód
Temperatura 41°C
Wilgotność 16%
Ciśnienie 1004 hPa
Widzialność: 7000 m
bezchmurnie
(słaby) , pył

METAR: OKBK 200700Z 34021KT 7000 -BLDU SKC 41/10 Q1004 NOSIG

czas: 10:11 (07:11 UTC)

Prognoza

Raport powstał 2 godziny i 26 minut temu, godzina 04:45 UTC
Prognoza ważna od 20 godzina 06 UTC do 21 godzina 12 UTC
Wiatr 15 kt od północno-północny zachód w porywach dochodzący do 30 kt
Widzialność: 6000 m
bezchmurnie
Przejściowo
od 20 godzina 06 UTC do 20 godzina 15 UTC
Widzialność: 1500 m
zawieja pyłowa
Prawdopodobieństwo 30% :
Przejściowo
od 20 godzina 09 UTC do 20 godzina 12 UTC
Widzialność: 0800 m

TAF: OKBK 200445Z 2006/2112 34015G30KT 6000 SKC TEMPO 2006/2015 1500 BLDU PROB30 TEMPO 2009/2012 0800 DS

Obserwacja i prognoza pogody dla ponad 4000 lotnisk (raport METAR i TAF).

Dostępne stacje oznaczono żółtymi i czerwonymi punktami na mapie.

Najedź kursorem aby zobaczyć nazwę stacji.

Kliknij aby zobaczyć obserwacje i prognozy pogody.

Aby zmienić mapę: kliknij na zielony przycisk z czarnym krzyżykiem, aby powiększyć; na zielony przycisk z myślnikiem, aby pomniejszyć; na zielone strzałki, aby przejść do map sąsiednich.


METAR-TAF: